Time,TemperatureF,DewpointF,PressureIn,WindDirection,WindDirectionDegrees,WindSpeedMPH,WindSpeedGustMPH,Humidity,HourlyPrecipIn,Conditions,Clouds,dailyrainin,SolarRadiationWatts/m^2,SoftwareType,DateUTC
2013-05-10 00:03:00,50.0,43.0,-100.00,WNW,295,4.0,5.0,76,0.00,,,0.03,0.000000,,2013-05-10 04:03:00,
2013-05-10 00:12:00,50.0,43.0,-100.00,WNW,295,4.0,5.0,76,0.00,,,0.03,0.000000,,2013-05-10 04:12:00,
2013-05-10 00:33:00,47.0,41.0,-100.00,West,274,1.0,5.0,80,0.00,,,0.03,0.000000,,2013-05-10 04:33:00,
2013-05-10 00:43:00,47.0,41.0,-100.00,West,274,1.0,5.0,80,0.00,,,0.03,0.000000,,2013-05-10 04:43:00,
2013-05-10 00:53:00,47.0,41.0,-100.00,West,274,1.0,5.0,80,0.00,,,0.03,0.000000,,2013-05-10 04:53:00,
2013-05-10 01:02:00,47.0,41.0,-100.00,West,274,1.0,5.0,80,0.00,,,0.03,0.000000,,2013-05-10 05:02:00,
2013-05-10 01:12:00,47.0,41.0,-100.00,West,274,1.0,5.0,80,0.00,,,0.03,0.000000,,2013-05-10 05:12:00,
2013-05-10 01:42:00,45.0,39.0,-100.00,North,3,2.0,4.0,79,0.00,,,0.03,0.000000,,2013-05-10 05:42:00,
2013-05-10 01:52:00,45.0,39.0,-100.00,North,3,2.0,4.0,79,0.00,,,0.03,0.000000,,2013-05-10 05:52:00,
2013-05-10 02:01:00,45.0,39.0,-100.00,North,3,2.0,4.0,79,0.00,,,0.03,0.000000,,2013-05-10 06:01:00,
2013-05-10 02:12:00,45.0,39.0,-100.00,North,3,2.0,4.0,79,0.00,,,0.03,0.000000,,2013-05-10 06:12:00,
2013-05-10 02:42:00,49.0,39.0,-100.00,WNW,302,4.0,6.0,69,0.00,,,0.03,0.000000,,2013-05-10 06:42:00,
2013-05-10 02:52:00,49.0,39.0,-100.00,WNW,302,4.0,6.0,69,0.00,,,0.03,0.000000,,2013-05-10 06:52:00,
2013-05-10 03:02:00,49.0,39.0,-100.00,WNW,302,4.0,6.0,69,0.00,,,0.03,0.000000,,2013-05-10 07:02:00,
2013-05-10 03:12:00,49.0,39.0,-100.00,WNW,302,4.0,6.0,69,0.00,,,0.03,0.000000,,2013-05-10 07:12:00,
2013-05-10 04:42:00,46.0,39.0,-100.00,West,271,3.0,4.0,77,-99.99,,,0.03,0.000000,,2013-05-10 08:42:00,
2013-05-10 04:52:00,46.0,39.0,-100.00,West,271,3.0,4.0,77,-99.99,,,0.03,0.000000,,2013-05-10 08:52:00,
2013-05-10 05:01:00,46.0,39.0,-100.00,West,271,3.0,4.0,77,-99.99,,,0.03,0.000000,,2013-05-10 09:01:00,
2013-05-10 05:11:00,46.0,39.0,-100.00,West,271,3.0,4.0,77,-99.99,,,0.03,0.000000,,2013-05-10 09:11:00,
2013-05-10 05:33:00,43.0,39.0,-100.00,WNW,289,1.0,4.0,86,0.00,,,0.03,0.000000,,2013-05-10 09:33:00,
2013-05-10 05:43:00,43.0,39.0,-100.00,WNW,289,1.0,4.0,86,0.00,,,0.03,0.000000,,2013-05-10 09:43:00,
2013-05-10 05:52:00,43.0,39.0,-100.00,WNW,289,1.0,4.0,86,0.00,,,0.03,0.000000,,2013-05-10 09:52:00,
2013-05-10 06:03:00,43.0,39.0,-100.00,WNW,289,1.0,4.0,86,0.00,,,0.03,0.000000,,2013-05-10 10:03:00,
2013-05-10 06:12:00,43.0,39.0,-100.00,WNW,289,1.0,4.0,86,0.00,,,0.03,0.000000,,2013-05-10 10:12:00,
2013-05-10 06:33:00,48.0,39.0,-100.00,WNW,291,5.0,8.0,72,0.00,,,0.03,0.000000,,2013-05-10 10:33:00,
2013-05-10 06:42:00,48.0,39.0,-100.00,WNW,291,5.0,8.0,72,0.00,,,0.03,0.000000,,2013-05-10 10:42:00,
2013-05-10 06:53:00,48.0,39.0,-100.00,WNW,291,5.0,8.0,72,0.00,,,0.03,0.000000,,2013-05-10 10:53:00,
2013-05-10 07:02:00,48.0,39.0,-100.00,WNW,291,5.0,8.0,72,0.00,,,0.03,0.000000,,2013-05-10 11:02:00,
2013-05-10 07:12:00,48.0,39.0,-100.00,WNW,291,5.0,8.0,72,0.00,,,0.03,0.000000,,2013-05-10 11:12:00,
2013-05-10 09:42:00,51.0,43.0,-100.00,ESE,110,4.0,14.0,74,-99.99,,,0.03,112.000000,,2013-05-10 13:42:00,
2013-05-10 09:52:00,51.0,43.0,-100.00,ESE,110,4.0,14.0,74,-99.99,,,0.03,112.000000,,2013-05-10 13:52:00,
2013-05-10 10:02:00,51.0,43.0,-100.00,ESE,110,4.0,14.0,74,-99.99,,,0.03,112.000000,,2013-05-10 14:02:00,
2013-05-10 10:11:00,51.0,43.0,-100.00,ESE,110,4.0,14.0,74,-99.99,,,0.03,112.000000,,2013-05-10 14:11:00,
2013-05-10 10:13:00,-999.0,-99.9,-100.00,West,277,7.0,12.0,58,0.00,,,0.03,322.000000,,2013-05-10 14:13:00,
2013-05-10 10:42:00,57.0,42.0,-100.00,West,277,7.0,12.0,58,0.00,,,0.03,322.000000,,2013-05-10 14:42:00,
2013-05-10 10:52:00,57.0,42.0,-100.00,West,277,7.0,12.0,58,0.00,,,0.03,322.000000,,2013-05-10 14:52:00,
2013-05-10 11:02:00,57.0,42.0,-100.00,West,277,7.0,12.0,58,0.00,,,0.03,322.000000,,2013-05-10 15:02:00,
2013-05-10 12:43:00,65.0,44.0,-100.00,North,359,7.0,13.0,47,-99.99,,,0.03,654.000000,,2013-05-10 16:43:00,
2013-05-10 12:53:00,65.0,44.0,-100.00,North,359,7.0,13.0,47,-99.99,,,0.03,654.000000,,2013-05-10 16:53:00,
2013-05-10 13:02:00,65.0,44.0,-100.00,North,359,7.0,13.0,47,-99.99,,,0.03,654.000000,,2013-05-10 17:02:00,
2013-05-10 13:12:00,65.0,44.0,-100.00,North,359,7.0,13.0,47,-99.99,,,0.03,654.000000,,2013-05-10 17:12:00,
2013-05-10 13:42:00,64.0,41.0,-100.00,East,94,6.0,13.0,43,0.00,,,0.03,483.000000,,2013-05-10 17:42:00,
2013-05-10 13:52:00,64.0,41.0,-100.00,East,94,6.0,13.0,43,0.00,,,0.03,483.000000,,2013-05-10 17:52:00,
2013-05-10 14:10:00,-999.0,-99.9,-100.00,East,94,6.0,13.0,43,0.00,,,0.03,483.000000,,2013-05-10 18:10:00,
2013-05-10 14:43:00,63.0,41.0,-100.00,NE,39,7.0,12.0,45,0.01,,,0.04,503.000000,,2013-05-10 18:43:00,
2013-05-10 14:54:00,63.0,41.0,-100.00,NE,39,7.0,12.0,45,0.01,,,0.04,503.000000,,2013-05-10 18:54:00,
2013-05-10 15:02:00,63.0,41.0,-100.00,NE,39,7.0,12.0,45,0.01,,,0.04,503.000000,,2013-05-10 19:02:00,
2013-05-10 15:11:00,63.0,41.0,-100.00,NE,39,7.0,12.0,45,0.01,,,0.04,503.000000,,2013-05-10 19:11:00,
2013-05-10 15:42:00,65.0,40.0,-100.00,NNE,12,8.0,19.0,40,0.00,,,-99.99,705.000000,,2013-05-10 19:42:00,
2013-05-10 15:52:00,65.0,40.0,-100.00,NNE,12,8.0,19.0,40,0.00,,,-99.99,705.000000,,2013-05-10 19:52:00,
2013-05-10 16:01:00,65.0,40.0,-100.00,NNE,12,8.0,19.0,40,0.00,,,-99.99,705.000000,,2013-05-10 20:01:00,
2013-05-10 16:12:00,65.0,40.0,-100.00,NNE,12,8.0,19.0,40,0.00,,,-99.99,705.000000,,2013-05-10 20:12:00,
2013-05-10 16:42:00,69.0,36.0,-100.00,SW,235,4.0,15.0,30,0.00,,,0.04,1067.000000,,2013-05-10 20:42:00,
2013-05-10 16:52:00,69.0,36.0,-100.00,SW,235,4.0,15.0,30,0.00,,,0.04,1067.000000,,2013-05-10 20:52:00,
2013-05-10 17:02:00,69.0,36.0,-100.00,SW,235,4.0,15.0,30,0.00,,,0.04,1067.000000,,2013-05-10 21:02:00,
2013-05-10 17:11:00,69.0,36.0,-100.00,SW,235,4.0,15.0,30,0.00,,,0.04,1067.000000,,2013-05-10 21:11:00,
2013-05-10 18:42:00,71.0,29.0,-100.00,North,9,12.0,22.0,21,-99.99,,,0.03,600.000000,,2013-05-10 22:42:00,
2013-05-10 18:52:00,71.0,29.0,-100.00,North,9,12.0,22.0,21,-99.99,,,0.03,600.000000,,2013-05-10 22:52:00,
2013-05-10 19:02:00,71.0,29.0,-100.00,North,9,12.0,22.0,21,-99.99,,,0.03,600.000000,,2013-05-10 23:02:00,
2013-05-10 19:12:00,71.0,29.0,-100.00,North,9,12.0,22.0,21,-99.99,,,0.03,600.000000,,2013-05-10 23:12:00,
2013-05-10 19:33:00,63.0,33.0,-100.00,North,2,26.0,46.0,33,0.00,,,0.01,288.000000,,2013-05-10 23:33:00,
2013-05-10 19:42:00,63.0,33.0,-100.00,North,2,26.0,46.0,33,0.00,,,0.01,288.000000,,2013-05-10 23:42:00,
2013-05-10 19:52:00,63.0,33.0,-100.00,North,2,26.0,46.0,33,0.00,,,0.01,288.000000,,2013-05-10 23:52:00,
2013-05-10 20:02:00,63.0,33.0,-100.00,North,2,26.0,46.0,33,0.00,,,0.01,288.000000,,2013-05-11 00:02:00,
2013-05-10 20:11:00,63.0,33.0,-100.00,North,2,26.0,46.0,33,0.00,,,0.01,288.000000,,2013-05-11 00:11:00,
2013-05-10 21:32:00,61.0,38.0,-100.00,NNW,335,12.0,24.0,42,-99.99,,,0.01,91.000000,,2013-05-11 01:32:00,
2013-05-10 21:42:00,61.0,38.0,-100.00,NNW,335,12.0,24.0,42,-99.99,,,0.01,91.000000,,2013-05-11 01:42:00,
2013-05-10 21:52:00,61.0,38.0,-100.00,NNW,335,12.0,24.0,42,-99.99,,,0.01,91.000000,,2013-05-11 01:52:00,
2013-05-10 22:02:00,61.0,38.0,-100.00,NNW,335,12.0,24.0,42,-99.99,,,0.01,91.000000,,2013-05-11 02:02:00,
2013-05-10 22:11:00,61.0,38.0,-100.00,NNW,335,12.0,24.0,42,-99.99,,,0.01,91.000000,,2013-05-11 02:11:00,
2013-05-10 22:42:00,56.0,40.0,-100.00,NNW,347,11.0,20.0,55,0.00,,,0.01,37.000000,,2013-05-11 02:42:00,
2013-05-10 22:52:00,56.0,40.0,-100.00,NNW,347,11.0,20.0,55,0.00,,,0.01,37.000000,,2013-05-11 02:52:00,
2013-05-10 23:01:00,56.0,40.0,-100.00,NNW,347,11.0,20.0,55,0.00,,,0.01,37.000000,,2013-05-11 03:01:00,
2013-05-10 23:11:00,56.0,40.0,-100.00,NNW,347,11.0,20.0,55,0.00,,,0.01,37.000000,,2013-05-11 03:11:00,
2013-05-10 23:43:00,52.0,38.0,-100.00,NW,325,7.0,17.0,59,0.00,,,0.01,1.000000,,2013-05-11 03:43:00,
2013-05-10 23:53:00,52.0,38.0,-100.00,NW,325,7.0,17.0,59,0.00,,,0.01,1.000000,,2013-05-11 03:53:00,